Impacts METAR Board
IDs:

KSAN - San Diego Intl Arpt, CA, US

Updated at: 1900 UTC 02 Oct 2022
Potential Impact None Slight Moderate High
Time 02/07Z 02/08Z 02/09Z 02/10Z 02/11Z 02/12Z 02/13Z 02/14Z 02/15Z 02/16Z 02/17Z 02/18Z 02/19Z
Temp68 68 68 68 68 68 68 69 69 70 70 71 73
Dewpt58 58 58 58 58 59 59 59 59 59 59 59 59
Altim29.92 29.91 29.91 29.90 29.90 29.91 29.92 29.93 29.95 29.97 29.98 29.98 29.97
VIS10 10 10 10 10 10 10 10 10 10 10 10 10
CIG23 23 22 22 22 21 21 21 21 22 23 23 25
CoverBKNOVCOVCOVCOVCOVCOVCOVCOVCOVCOVCOVCBKN
FltCatMVFRMVFRMVFRMVFRMVFRMVFRMVFRMVFRMVFRMVFRMVFRMVFRMVFR
WX--------------------------
WDir002502703100000100260310
WSpd0 4 3 3 3 0 0 0 0 3 0 7 8
WGst-- -- -- -- -- -- -- -- -- -- -- -- --
Raw hourly METARs
KSAN 020651Z 00000KT 10SM BKN023 20/14 A2992 RMK AO2 SLP132 T02000144
KSAN 020751Z VRB04KT 10SM OVC023 20/14 A2991 RMK AO2 SLP129 T02000144 402280189
KSAN 020851Z 25003KT 10SM OVC022 20/14 A2991 RMK AO2 SLP126 T02000144 58006
KSAN 020951Z 27003KT 10SM OVC022 20/14 A2990 RMK AO2 SLP126 T02000144
KSAN 021051Z 31003KT 10SM OVC022 20/14 A2990 RMK AO2 SLP125 T02000144
KSAN 021151Z 00000KT 10SM OVC021 20/15 A2991 RMK AO2 SLP128 T02000150 10206 20200 53001
KSAN 021251Z 00000KT 10SM OVC021 20/15 A2992 RMK AO2 SLP132 T02000150
KSAN 021351Z 00000KT 10SM OVC021 21/15 A2993 RMK AO2 SLP135 T02060150
KSAN 021451Z COR 00000KT 10SM OVC021 21/15 A2995 RMK AO2 SLP141 T02060150 53013
KSAN 021551Z 01003KT 10SM OVC022 21/15 A2997 RMK AO2 SLP147 T02110150
KSAN 021651Z 00000KT 10SM OVC023 21/15 A2998 RMK AO2 SLP152 T02110150
KSAN 021751Z 26007KT 10SM OVC023 22/15 A2998 RMK AO2 SLP151 T02170150 10217 20200 50010
KSAN 021851Z 31008KT 10SM BKN025 23/15 A2997 RMK AO2 SLP147 T02280150



Page loaded:  19:25 UTC  |   12:25 PM Pacific  |   01:25 PM Mountain  |   02:25 PM Central  |   03:25 PM Eastern

 

ADVISORIES

FORECASTS

FORECASTS

OBSERVATIONS

USER TOOLS

ABOUT US